Time;durP1;ratioP1;P1;durP2;ratioP2;P2;SDS_P1;SDS_P2;PMS_P1;PMS_P2;Temp;Humidity;BMP_temperature;BMP_pressure;BME280_temperature;BME280_humidity;BME280_pressure;Samples;Min_cycle;Max_cycle;Signal;HPM_P1;HPM_P2
2022/08/19 00:00:06;;;;;;;1.20;0.50;;;;;;;;;;4971251;28;20055;-82
2022/08/19 00:02:35;;;;;;;0.28;0.20;;;;;;;;;;4971366;28;20126;-84
2022/08/19 00:05:05;;;;;;;1.45;0.60;;;;;;;;;;4970631;28;20133;-83
2022/08/19 00:07:33;;;;;;;1.02;0.82;;;;;;;;;;4971023;28;20129;-84
2022/08/19 00:10:01;;;;;;;0.50;0.38;;;;;;;;;;4971029;28;20090;-82
2022/08/19 00:12:30;;;;;;;0.70;0.32;;;;;;;;;;4971015;28;20509;-82
2022/08/19 00:14:58;;;;;;;0.93;0.57;;;;;;;;;;4969941;28;20778;-83
2022/08/19 00:17:28;;;;;;;0.17;0.13;;;;;;;;;;4970971;28;20078;-85
2022/08/19 00:19:56;;;;;;;0.52;0.40;;;;;;;;;;4970413;28;20047;-81
2022/08/19 00:22:26;;;;;;;0.38;0.35;;;;;;;;;;4971131;28;20047;-82
2022/08/19 00:24:55;;;;;;;1.55;0.70;;;;;;;;;;4970600;28;20082;-82
2022/08/19 00:27:24;;;;;;;0.30;0.30;;;;;;;;;;4968807;28;20047;-81
2022/08/19 00:29:54;;;;;;;0.38;0.32;;;;;;;;;;4970287;28;20054;-82
2022/08/19 00:32:22;;;;;;;0.60;0.43;;;;;;;;;;4971060;28;20058;-83
2022/08/19 00:34:53;;;;;;;0.75;0.60;;;;;;;;;;4973312;28;20051;-81
2022/08/19 00:37:22;;;;;;;1.00;0.60;;;;;;;;;;4975132;28;20054;-81
2022/08/19 00:39:51;;;;;;;1.20;0.60;;;;;;;;;;4974295;28;20507;-82
2022/08/19 00:42:20;;;;;;;0.93;0.45;;;;;;;;;;4964985;28;20444;-82
2022/08/19 00:44:50;;;;;;;1.65;1.10;;;;;;;;;;4974602;28;20074;-83
2022/08/19 00:47:19;;;;;;;1.33;0.88;;;;;;;;;;4974565;28;20055;-82
2022/08/19 00:49:51;;;;;;;0.75;0.47;;;;;;;;;;4974169;28;20101;-81
2022/08/19 00:52:24;;;;;;;1.48;0.73;;;;;;;;;;4974563;28;20147;-82
2022/08/19 00:54:53;;;;;;;0.73;0.70;;;;;;;;;;4973833;28;20200;-82
2022/08/19 00:57:26;;;;;;;2.30;1.33;;;;;;;;;;4974249;28;20133;-81
2022/08/19 00:59:55;;;;;;;0.82;0.60;;;;;;;;;;4974539;28;20138;-83
2022/08/19 01:02:31;;;;;;;1.55;0.45;;;;;;;;;;4973143;28;20102;-82
2022/08/19 01:05:00;;;;;;;0.63;0.55;;;;;;;;;;4972641;28;20181;-82
2022/08/19 01:07:30;;;;;;;1.20;0.80;;;;;;;;;;4973976;28;20070;-81
2022/08/19 01:10:07;;;;;;;1.92;1.20;;;;;;;;;;4974277;28;20121;-81
2022/08/19 01:12:36;;;;;;;0.47;0.40;;;;;;;;;;4974556;28;20082;-81
2022/08/19 01:15:04;;;;;;;0.98;0.80;;;;;;;;;;4973344;28;20068;-81
2022/08/19 01:17:33;;;;;;;1.58;1.30;;;;;;;;;;4973738;28;20082;-83
2022/08/19 01:20:01;;;;;;;0.65;0.60;;;;;;;;;;4973953;28;20050;-81
2022/08/19 01:22:32;;;;;;;1.77;0.80;;;;;;;;;;4974515;28;20055;-81
2022/08/19 01:25:01;;;;;;;0.85;0.60;;;;;;;;;;4973460;28;20509;-81
2022/08/19 01:27:38;;;;;;;2.22;0.98;;;;;;;;;;4974107;28;20046;-82
2022/08/19 01:30:13;;;;;;;1.80;1.15;;;;;;;;;;4973628;28;20069;-81
2022/08/19 01:32:42;;;;;;;1.70;1.05;;;;;;;;;;4973837;28;20130;-81
2022/08/19 01:35:11;;;;;;;1.13;0.63;;;;;;;;;;4973345;28;20447;-81
2022/08/19 01:37:45;;;;;;;1.90;0.75;;;;;;;;;;4973976;28;20480;-81
2022/08/19 01:40:13;;;;;;;4.78;1.40;;;;;;;;;;4973346;28;20226;-82
2022/08/19 01:42:42;;;;;;;1.58;1.10;;;;;;;;;;4973600;28;20055;-81
2022/08/19 01:45:11;;;;;;;3.97;1.40;;;;;;;;;;4972797;28;20130;-81
2022/08/19 01:47:39;;;;;;;1.85;1.00;;;;;;;;;;4974193;28;20133;-81
2022/08/19 01:50:09;;;;;;;2.05;1.00;;;;;;;;;;4973879;28;20134;-86
2022/08/19 01:52:38;;;;;;;1.45;0.90;;;;;;;;;;4973645;28;20129;-83
2022/08/19 01:55:09;;;;;;;2.80;1.55;;;;;;;;;;4972921;28;20129;-81
2022/08/19 01:57:38;;;;;;;2.05;0.93;;;;;;;;;;4973589;28;20049;-83
2022/08/19 02:00:09;;;;;;;1.52;1.05;;;;;;;;;;4973484;28;20138;-81
2022/08/19 02:02:37;;;;;;;2.10;1.00;;;;;;;;;;4973524;28;20509;-81
2022/08/19 02:05:07;;;;;;;1.25;0.77;;;;;;;;;;4972788;28;20117;-81
2022/08/19 02:07:38;;;;;;;0.93;0.68;;;;;;;;;;4973025;28;20054;-83
2022/08/19 02:10:12;;;;;;;0.82;0.35;;;;;;;;;;4973027;28;20110;-84
2022/08/19 02:12:43;;;;;;;2.17;1.35;;;;;;;;;;4970230;28;20054;-83
2022/08/19 02:15:13;;;;;;;1.08;0.82;;;;;;;;;;4971673;28;20129;-82
2022/08/19 02:17:41;;;;;;;2.15;0.80;;;;;;;;;;4973650;28;20085;-81
2022/08/19 02:20:10;;;;;;;1.52;0.77;;;;;;;;;;4972971;28;20051;-81
2022/08/19 02:22:41;;;;;;;1.98;0.85;;;;;;;;;;4972948;28;20419;-82
2022/08/19 02:25:11;;;;;;;1.58;1.10;;;;;;;;;;4972425;28;20101;-81
2022/08/19 02:27:40;;;;;;;1.35;0.98;;;;;;;;;;4973076;28;20138;-82
2022/08/19 02:30:10;;;;;;;1.05;0.88;;;;;;;;;;4972570;28;20333;-84
2022/08/19 02:32:41;;;;;;;1.35;0.93;;;;;;;;;;4972775;28;20058;-81
2022/08/19 02:35:22;;;;;;;2.33;1.17;;;;;;;;;;4972582;28;20055;-81
2022/08/19 02:40:38;;;;;;;1.95;1.10;;;;;;;;;;4972543;28;20082;-82
2022/08/19 02:43:08;;;;;;;1.00;0.90;;;;;;;;;;4972679;28;20530;-81
2022/08/19 02:45:37;;;;;;;1.35;1.25;;;;;;;;;;4972500;28;20138;-81
2022/08/19 02:48:09;;;;;;;2.15;0.90;;;;;;;;;;4972784;28;20061;-84
2022/08/19 02:50:54;;;;;;;1.75;1.15;;;;;;;;;;4972302;28;20051;-81
2022/08/19 02:53:23;;;;;;;1.15;0.60;;;;;;;;;;4970247;28;20160;-81
2022/08/19 02:55:53;;;;;;;0.93;0.65;;;;;;;;;;4971250;28;20086;-81
2022/08/19 02:58:26;;;;;;;1.38;1.02;;;;;;;;;;4971722;28;20509;-81
2022/08/19 03:00:55;;;;;;;0.50;0.30;;;;;;;;;;4972256;28;20081;-83
2022/08/19 03:03:24;;;;;;;2.30;1.15;;;;;;;;;;4972320;28;20046;-81
2022/08/19 03:05:52;;;;;;;1.73;0.75;;;;;;;;;;4971397;28;20093;-81
2022/08/19 03:08:25;;;;;;;1.15;0.63;;;;;;;;;;4972251;28;20042;-81
2022/08/19 03:10:55;;;;;;;2.13;0.90;;;;;;;;;;4972106;28;20129;-83
2022/08/19 03:13:24;;;;;;;0.68;0.45;;;;;;;;;;4971737;28;20447;-81
2022/08/19 03:15:52;;;;;;;1.77;0.80;;;;;;;;;;4971156;28;20113;-83
2022/08/19 03:18:21;;;;;;;1.20;0.85;;;;;;;;;;4971965;28;20514;-81
2022/08/19 03:20:52;;;;;;;1.27;1.02;;;;;;;;;;4971708;28;20051;-81
2022/08/19 03:23:21;;;;;;;2.40;1.92;;;;;;;;;;4971827;28;20051;-82
2022/08/19 03:25:50;;;;;;;0.75;0.55;;;;;;;;;;4970909;28;20122;-81
2022/08/19 03:28:40;;;;;;;0.35;0.30;;;;;;;;;;4971460;28;20074;-84
2022/08/19 03:31:09;;;;;;;1.30;0.63;;;;;;;;;;4971741;28;20062;-83
2022/08/19 03:33:57;;;;;;;1.20;0.80;;;;;;;;;;4971693;28;20235;-81
2022/08/19 03:36:27;;;;;;;1.02;0.73;;;;;;;;;;4971155;28;20051;-82
2022/08/19 03:39:00;;;;;;;3.58;1.05;;;;;;;;;;4971415;28;20051;-82
2022/08/19 03:41:30;;;;;;;2.17;0.93;;;;;;;;;;4971478;28;20476;-81
2022/08/19 03:44:15;;;;;;;1.08;0.63;;;;;;;;;;4963640;28;20054;-82
2022/08/19 03:46:46;;;;;;;1.90;0.88;;;;;;;;;;4970865;28;20050;-83
2022/08/19 03:49:14;;;;;;;1.08;0.70;;;;;;;;;;4971519;28;20074;-81
2022/08/19 03:51:45;;;;;;;1.40;0.65;;;;;;;;;;4971291;28;20051;-81
2022/08/19 03:54:14;;;;;;;1.33;0.80;;;;;;;;;;4971474;28;20570;-82
2022/08/19 03:56:43;;;;;;;0.73;0.50;;;;;;;;;;4970842;28;20078;-82
2022/08/19 03:59:13;;;;;;;0.50;0.50;;;;;;;;;;4970807;28;20082;-82
2022/08/19 04:01:43;;;;;;;1.60;0.63;;;;;;;;;;4971287;28;20126;-81
2022/08/19 04:04:11;;;;;;;1.08;0.68;;;;;;;;;;4971399;28;20049;-82
2022/08/19 04:06:41;;;;;;;0.47;0.32;;;;;;;;;;4970974;28;20102;-81
2022/08/19 04:09:10;;;;;;;2.88;1.00;;;;;;;;;;4970072;28;20141;-82
2022/08/19 04:11:40;;;;;;;1.23;0.60;;;;;;;;;;4971082;28;20082;-83
2022/08/19 04:14:12;;;;;;;2.13;0.98;;;;;;;;;;4971233;28;20511;-82
2022/08/19 04:16:40;;;;;;;2.28;0.70;;;;;;;;;;4971860;28;20109;-81
2022/08/19 04:19:10;;;;;;;1.48;0.93;;;;;;;;;;4970922;28;20510;-83
2022/08/19 04:21:39;;;;;;;1.13;0.82;;;;;;;;;;4970603;28;20507;-84
2022/08/19 04:24:07;;;;;;;2.25;1.25;;;;;;;;;;4970776;28;20478;-81
2022/08/19 04:26:37;;;;;;;1.15;0.68;;;;;;;;;;4970717;28;20517;-83
2022/08/19 04:29:06;;;;;;;0.98;0.75;;;;;;;;;;4971007;28;20050;-81
2022/08/19 04:31:40;;;;;;;2.97;0.93;;;;;;;;;;4971128;28;20047;-81
2022/08/19 04:34:11;;;;;;;0.80;0.68;;;;;;;;;;4970988;28;20054;-83
2022/08/19 04:36:41;;;;;;;0.88;0.73;;;;;;;;;;4969991;28;20142;-82
2022/08/19 04:39:10;;;;;;;2.70;0.93;;;;;;;;;;4970919;28;20047;-82
2022/08/19 04:44:25;;;;;;;2.10;1.25;;;;;;;;;;4970851;28;20130;-83
2022/08/19 04:46:54;;;;;;;2.55;1.20;;;;;;;;;;4970323;28;20050;-81
2022/08/19 04:49:24;;;;;;;0.70;0.65;;;;;;;;;;4970921;28;20089;-81
2022/08/19 04:51:54;;;;;;;2.17;0.82;;;;;;;;;;4970739;28;20046;-81
2022/08/19 04:54:24;;;;;;;0.95;0.70;;;;;;;;;;4971098;28;20051;-81
2022/08/19 04:57:07;;;;;;;1.38;0.85;;;;;;;;;;4961582;28;20067;-83
2022/08/19 04:59:36;;;;;;;2.10;1.17;;;;;;;;;;4970779;28;20127;-81
2022/08/19 05:02:04;;;;;;;3.20;1.15;;;;;;;;;;4970383;28;20054;-82
2022/08/19 05:04:35;;;;;;;2.33;0.93;;;;;;;;;;4968799;28;20129;-81
2022/08/19 05:07:03;;;;;;;1.70;1.02;;;;;;;;;;4969967;28;20125;-83
2022/08/19 05:09:32;;;;;;;2.25;1.20;;;;;;;;;;4970519;28;20129;-82
2022/08/19 05:12:20;;;;;;;0.75;0.60;;;;;;;;;;4970978;28;20077;-81
2022/08/19 05:14:54;;;;;;;2.45;0.93;;;;;;;;;;4970445;28;20198;-81
2022/08/19 05:17:22;;;;;;;1.50;0.95;;;;;;;;;;4970348;28;20145;-82
2022/08/19 05:22:43;;;;;;;1.90;1.08;;;;;;;;;;4974561;28;20129;-81
2022/08/19 05:25:12;;;;;;;3.03;0.98;;;;;;;;;;4973851;28;20585;-81
2022/08/19 05:27:41;;;;;;;1.25;0.93;;;;;;;;;;4974071;28;20051;-82
2022/08/19 05:30:10;;;;;;;1.88;0.80;;;;;;;;;;4973286;28;20066;-82
2022/08/19 05:32:39;;;;;;;1.33;0.95;;;;;;;;;;4973813;28;20055;-85
2022/08/19 05:35:10;;;;;;;1.30;0.85;;;;;;;;;;4973477;28;20141;-82
2022/08/19 05:37:39;;;;;;;2.03;1.05;;;;;;;;;;4974521;28;20086;-83
2022/08/19 05:40:09;;;;;;;3.38;1.33;;;;;;;;;;4973410;28;20411;-85
2022/08/19 05:42:38;;;;;;;2.90;1.02;;;;;;;;;;4973768;28;20050;-82
2022/08/19 05:45:06;;;;;;;1.63;0.73;;;;;;;;;;4972927;28;20130;-82
2022/08/19 05:47:35;;;;;;;1.63;0.98;;;;;;;;;;4973962;28;20125;-81
2022/08/19 05:50:10;;;;;;;1.17;1.05;;;;;;;;;;4973787;28;20117;-83
2022/08/19 05:52:39;;;;;;;4.35;1.30;;;;;;;;;;4973358;28;20078;-84
2022/08/19 05:55:13;;;;;;;1.63;0.77;;;;;;;;;;4972964;28;20050;-83
2022/08/19 05:57:41;;;;;;;1.95;1.08;;;;;;;;;;4973157;28;20134;-82
2022/08/19 06:00:11;;;;;;;0.95;0.60;;;;;;;;;;4973816;28;20130;-82
2022/08/19 06:02:40;;;;;;;1.83;1.15;;;;;;;;;;4971057;28;20054;-84
2022/08/19 06:05:09;;;;;;;3.55;1.40;;;;;;;;;;4972892;28;20512;-84
2022/08/19 06:07:40;;;;;;;1.15;0.90;;;;;;;;;;4973291;28;20125;-81
2022/08/19 06:10:09;;;;;;;1.83;0.90;;;;;;;;;;4973554;28;20530;-83
2022/08/19 06:12:38;;;;;;;2.15;0.90;;;;;;;;;;4972587;28;20125;-83
2022/08/19 06:15:08;;;;;;;2.63;1.13;;;;;;;;;;4973276;28;20090;-83
2022/08/19 06:17:37;;;;;;;4.10;1.65;;;;;;;;;;4972799;28;20058;-82
2022/08/19 06:20:05;;;;;;;1.98;1.15;;;;;;;;;;4972978;28;20109;-82
2022/08/19 06:22:38;;;;;;;1.70;1.30;;;;;;;;;;4973174;28;20090;-82
2022/08/19 06:25:09;;;;;;;3.20;1.30;;;;;;;;;;4972469;28;20137;-82
2022/08/19 06:27:37;;;;;;;2.03;0.90;;;;;;;;;;4973022;28;20051;-83
2022/08/19 06:30:20;;;;;;;0.98;0.90;;;;;;;;;;4971956;28;20051;-82
2022/08/19 06:32:48;;;;;;;3.05;1.50;;;;;;;;;;4972934;28;20122;-81
2022/08/19 06:35:18;;;;;;;2.78;1.25;;;;;;;;;;4972901;28;20503;-82
2022/08/19 06:37:47;;;;;;;4.93;1.77;;;;;;;;;;4973320;28;20122;-81
2022/08/19 06:40:16;;;;;;;1.83;1.08;;;;;;;;;;4972603;28;20050;-82
2022/08/19 06:42:45;;;;;;;1.40;1.30;;;;;;;;;;4973285;28;20047;-83
2022/08/19 06:45:22;;;;;;;1.30;0.63;;;;;;;;;;4972678;28;20059;-82
2022/08/19 06:48:01;;;;;;;2.03;1.10;;;;;;;;;;4973005;28;20137;-83
2022/08/19 06:50:30;;;;;;;2.78;0.95;;;;;;;;;;4973453;28;20050;-82
2022/08/19 06:52:58;;;;;;;1.13;0.90;;;;;;;;;;4972488;28;20050;-82
2022/08/19 06:55:33;;;;;;;2.33;1.17;;;;;;;;;;4972522;28;20201;-82
2022/08/19 06:58:03;;;;;;;2.22;1.55;;;;;;;;;;4972267;28;20139;-82
2022/08/19 07:00:32;;;;;;;3.15;1.17;;;;;;;;;;4972516;28;20051;-82
2022/08/19 07:03:01;;;;;;;4.13;1.38;;;;;;;;;;4970531;28;20050;-83
2022/08/19 07:05:39;;;;;;;4.80;2.10;;;;;;;;;;4971765;28;20046;-83
2022/08/19 07:08:12;;;;;;;2.47;1.67;;;;;;;;;;4961077;28;20042;-82
2022/08/19 07:10:45;;;;;;;7.95;1.85;;;;;;;;;;4972333;28;20097;-82
2022/08/19 07:13:14;;;;;;;2.80;1.52;;;;;;;;;;4971753;28;20054;-83
2022/08/19 07:15:42;;;;;;;3.22;1.55;;;;;;;;;;4971437;28;20097;-83
2022/08/19 07:18:10;;;;;;;1.88;1.05;;;;;;;;;;4971466;28;20121;-82
2022/08/19 07:20:39;;;;;;;3.13;1.65;;;;;;;;;;4972338;28;20057;-83
2022/08/19 07:23:09;;;;;;;3.33;1.58;;;;;;;;;;4971963;28;20462;-84
2022/08/19 07:25:46;;;;;;;3.50;1.58;;;;;;;;;;4970849;28;20062;-82
2022/08/19 07:28:20;;;;;;;2.97;1.85;;;;;;;;;;4971329;28;20050;-82
2022/08/19 07:30:51;;;;;;;3.97;2.03;;;;;;;;;;4972135;28;20046;-82
2022/08/19 07:33:20;;;;;;;2.53;1.65;;;;;;;;;;4972105;28;20521;-82
2022/08/19 07:35:49;;;;;;;3.58;1.58;;;;;;;;;;4971875;28;20059;-82
2022/08/19 07:38:18;;;;;;;6.57;2.67;;;;;;;;;;4971197;28;20058;-84
2022/08/19 07:40:47;;;;;;;4.97;2.45;;;;;;;;;;4971368;28;20105;-83
2022/08/19 07:43:22;;;;;;;4.93;1.98;;;;;;;;;;4970884;28;20106;-81
2022/08/19 07:45:50;;;;;;;6.55;3.17;;;;;;;;;;4971286;28;20399;-81
2022/08/19 07:48:19;;;;;;;4.38;2.20;;;;;;;;;;4971466;28;20467;-82
2022/08/19 07:50:48;;;;;;;4.07;2.25;;;;;;;;;;4971124;28;20137;-81
2022/08/19 07:53:16;;;;;;;4.47;2.70;;;;;;;;;;4971456;28;20086;-82
2022/08/19 07:55:45;;;;;;;4.35;2.10;;;;;;;;;;4971145;28;20065;-82
2022/08/19 07:58:17;;;;;;;7.28;3.22;;;;;;;;;;4971169;28;20102;-82
2022/08/19 08:00:46;;;;;;;5.10;2.42;;;;;;;;;;4971591;28;20051;-83
2022/08/19 08:03:16;;;;;;;2.55;1.60;;;;;;;;;;4971042;28;20475;-81
2022/08/19 08:11:25;;;;;;;5.40;2.20;;;;;;;;;;4971118;28;20062;-82
2022/08/19 08:13:58;;;;;;;5.70;3.03;;;;;;;;;;4970910;28;20058;-82
2022/08/19 08:16:30;;;;;;;3.50;2.20;;;;;;;;;;4970947;28;20054;-83
2022/08/19 08:19:00;;;;;;;5.28;2.67;;;;;;;;;;4971101;28;20057;-82
2022/08/19 08:21:28;;;;;;;4.55;2.63;;;;;;;;;;4971562;28;20082;-83
2022/08/19 08:23:57;;;;;;;9.07;4.10;;;;;;;;;;4971248;28;20077;-84
2022/08/19 08:26:30;;;;;;;4.72;2.17;;;;;;;;;;4970988;28;20105;-83
2022/08/19 08:29:03;;;;;;;8.38;3.15;;;;;;;;;;4971073;28;20551;-84
2022/08/19 08:31:41;;;;;;;4.13;2.30;;;;;;;;;;4971266;28;20047;-84
2022/08/19 08:34:09;;;;;;;7.00;2.88;;;;;;;;;;4970861;28;20074;-85
2022/08/19 08:36:41;;;;;;;4.72;3.03;;;;;;;;;;4970652;28;20520;-81
2022/08/19 08:39:10;;;;;;;6.53;3.00;;;;;;;;;;4971184;28;20098;-83
2022/08/19 08:41:41;;;;;;;6.57;3.42;;;;;;;;;;4970782;28;20057;-83
2022/08/19 08:44:15;;;;;;;7.70;2.75;;;;;;;;;;4971176;28;20081;-82
2022/08/19 08:46:48;;;;;;;4.32;2.80;;;;;;;;;;4970124;28;20047;-82
2022/08/19 08:49:25;;;;;;;4.03;2.35;;;;;;;;;;4970542;28;20105;-82
2022/08/19 08:51:56;;;;;;;6.95;3.47;;;;;;;;;;4969465;28;20051;-81
2022/08/19 08:54:31;;;;;;;3.27;2.10;;;;;;;;;;4973461;28;20046;-81
2022/08/19 08:57:02;;;;;;;4.35;2.10;;;;;;;;;;4964177;28;20043;-83
2022/08/19 08:59:35;;;;;;;5.35;3.60;;;;;;;;;;4974107;28;20047;-83
2022/08/19 09:02:04;;;;;;;7.07;2.78;;;;;;;;;;4974729;28;20094;-82
2022/08/19 09:04:32;;;;;;;8.07;2.30;;;;;;;;;;4974245;28;20067;-82
2022/08/19 09:07:08;;;;;;;5.93;2.47;;;;;;;;;;4974406;28;20141;-81
2022/08/19 09:09:56;;;;;;;;;;;;;;;;;;4975134;28;20145;-86
2022/08/19 09:12:27;;;;;;;5.97;3.35;;;;;;;;;;4973917;28;20024;-82
2022/08/19 09:15:00;;;;;;;5.45;2.60;;;;;;;;;;4974143;28;20058;-82
2022/08/19 09:17:33;;;;;;;5.93;2.67;;;;;;;;;;4974361;28;20054;-83
2022/08/19 09:20:08;;;;;;;7.70;2.90;;;;;;;;;;4974303;28;20070;-82
2022/08/19 09:22:38;;;;;;;4.95;2.60;;;;;;;;;;4973969;28;20050;-81
2022/08/19 09:25:08;;;;;;;9.38;2.70;;;;;;;;;;4973745;28;20047;-81
2022/08/19 09:27:38;;;;;;;7.15;2.50;;;;;;;;;;4974544;28;20046;-83
2022/08/19 09:30:14;;;;;;;5.78;3.70;;;;;;;;;;4973625;28;20047;-86
2022/08/19 09:32:43;;;;;;;8.05;2.85;;;;;;;;;;4963083;28;20594;-82
2022/08/19 09:35:13;;;;;;;4.38;2.22;;;;;;;;;;4973299;28;20082;-82
2022/08/19 09:37:43;;;;;;;4.55;3.22;;;;;;;;;;4974104;28;20047;-82
2022/08/19 09:40:13;;;;;;;5.35;2.72;;;;;;;;;;4973755;28;20062;-82
2022/08/19 09:42:44;;;;;;;6.68;2.38;;;;;;;;;;4974103;28;20491;-82
2022/08/19 09:45:22;;;;;;;8.05;2.42;;;;;;;;;;4971611;28;20051;-82
2022/08/19 09:47:52;;;;;;;4.82;2.58;;;;;;;;;;4973878;28;20050;-82
2022/08/19 09:50:23;;;;;;;7.55;2.78;;;;;;;;;;4973654;28;20047;-82
2022/08/19 09:52:57;;;;;;;5.47;2.40;;;;;;;;;;4973371;28;20089;-83
2022/08/19 09:55:27;;;;;;;5.70;2.53;;;;;;;;;;4972897;28;20057;-82
2022/08/19 09:58:01;;;;;;;5.60;2.60;;;;;;;;;;4973572;28;20055;-81
2022/08/19 10:00:31;;;;;;;4.25;2.25;;;;;;;;;;4973716;28;20059;-83
2022/08/19 10:03:00;;;;;;;6.30;2.58;;;;;;;;;;4973165;28;20047;-83
2022/08/19 10:05:49;;;;;;;6.15;2.85;;;;;;;;;;4971827;28;20050;-82
2022/08/19 10:08:23;;;;;;;7.25;2.60;;;;;;;;;;4963967;28;20050;-81
2022/08/19 10:10:54;;;;;;;5.85;2.53;;;;;;;;;;4973577;28;20074;-81
2022/08/19 10:13:25;;;;;;;4.88;2.70;;;;;;;;;;4972726;28;20050;-81
2022/08/19 10:15:56;;;;;;;9.90;3.70;;;;;;;;;;4972274;28;20094;-81
2022/08/19 10:18:26;;;;;;;4.38;3.00;;;;;;;;;;4972691;28;20407;-82
2022/08/19 10:21:11;;;;;;;5.55;2.78;;;;;;;;;;4973511;28;20098;-81
2022/08/19 10:23:39;;;;;;;5.03;2.83;;;;;;;;;;4973391;28;20086;-81
2022/08/19 10:26:08;;;;;;;3.90;3.08;;;;;;;;;;4972588;28;20058;-82
2022/08/19 10:28:38;;;;;;;6.13;2.80;;;;;;;;;;4972903;28;20050;-82
2022/08/19 10:31:14;;;;;;;6.65;2.97;;;;;;;;;;4972899;28;20125;-81
2022/08/19 10:33:46;;;;;;;4.03;2.30;;;;;;;;;;4970206;28;20487;-82
2022/08/19 10:36:22;;;;;;;6.57;2.80;;;;;;;;;;4971183;28;20109;-82
2022/08/19 10:38:52;;;;;;;8.20;2.80;;;;;;;;;;4972558;28;20455;-82
2022/08/19 10:41:25;;;;;;;3.65;2.33;;;;;;;;;;4972762;28;20046;-81
2022/08/19 10:43:54;;;;;;;4.55;2.35;;;;;;;;;;4973149;28;20138;-81
2022/08/19 10:46:25;;;;;;;5.88;2.97;;;;;;;;;;4971808;28;20419;-81
2022/08/19 10:48:54;;;;;;;2.65;1.98;;;;;;;;;;4972392;28;20550;-83
2022/08/19 10:54:15;;;;;;;7.72;2.53;;;;;;;;;;4974046;28;20114;-83
2022/08/19 10:56:51;;;;;;;5.28;2.78;;;;;;;;;;4973302;28;20486;-82
2022/08/19 10:59:21;;;;;;;5.25;1.55;;;;;;;;;;4972197;28;20090;-82
2022/08/19 11:01:56;;;;;;;4.88;1.63;;;;;;;;;;4963425;28;20491;-82
2022/08/19 11:04:24;;;;;;;4.30;2.10;;;;;;;;;;4971994;28;20459;-82
2022/08/19 11:06:57;;;;;;;3.35;2.17;;;;;;;;;;4971905;28;20070;-81
2022/08/19 11:09:27;;;;;;;2.90;1.65;;;;;;;;;;4972080;28;20495;-82
2022/08/19 11:12:01;;;;;;;4.22;1.92;;;;;;;;;;4971865;28;20046;-82
2022/08/19 11:14:33;;;;;;;4.00;2.08;;;;;;;;;;4972253;28;20149;-81
2022/08/19 11:17:04;;;;;;;2.55;1.35;;;;;;;;;;4971694;28;20395;-82
2022/08/19 11:19:32;;;;;;;4.55;2.55;;;;;;;;;;4971373;28;20051;-82
2022/08/19 11:22:02;;;;;;;3.40;1.45;;;;;;;;;;4971728;28;20459;-82
2022/08/19 11:24:32;;;;;;;5.60;2.40;;;;;;;;;;4963047;28;20380;-83
2022/08/19 11:27:05;;;;;;;3.55;2.08;;;;;;;;;;4971443;28;20351;-82
2022/08/19 11:29:34;;;;;;;3.80;1.83;;;;;;;;;;4972356;28;20130;-81
2022/08/19 11:32:06;;;;;;;4.05;1.90;;;;;;;;;;4971556;28;20169;-83
2022/08/19 11:34:35;;;;;;;3.03;1.45;;;;;;;;;;4971730;28;20147;-82
2022/08/19 11:37:05;;;;;;;5.25;2.28;;;;;;;;;;4970962;28;20064;-82
2022/08/19 11:39:35;;;;;;;3.83;1.35;;;;;;;;;;4971542;28;20097;-83
2022/08/19 11:42:54;;;;;;;2.25;1.25;;;;;;;;;;4971975;28;20047;-84
2022/08/19 11:44:52;;;;;;;1.52;0.80;;;;;;;;;;4970866;28;20078;-82
2022/08/19 11:47:23;;;;;;;2.05;1.00;;;;;;;;;;4971875;28;20125;-82
2022/08/19 11:49:52;;;;;;;1.95;1.00;;;;;;;;;;4971507;28;20047;-82
2022/08/19 11:52:21;;;;;;;1.20;0.80;;;;;;;;;;4971587;28;20130;-82
2022/08/19 11:54:49;;;;;;;1.05;0.70;;;;;;;;;;4971120;28;20051;-80
2022/08/19 11:57:19;;;;;;;0.70;0.43;;;;;;;;;;4971491;28;20113;-81
2022/08/19 11:59:51;;;;;;;0.30;0.30;;;;;;;;;;4967736;28;20467;-82
2022/08/19 12:02:19;;;;;;;0.47;0.45;;;;;;;;;;4971585;28;20089;-81
2022/08/19 12:04:50;;;;;;;0.55;0.40;;;;;;;;;;4970767;28;20046;-82
2022/08/19 12:07:18;;;;;;;0.55;0.55;;;;;;;;;;4970946;28;20057;-82
2022/08/19 12:09:47;;;;;;;1.10;0.40;;;;;;;;;;4970921;28;20039;-82
2022/08/19 12:12:16;;;;;;;0.40;0.32;;;;;;;;;;4970872;28;20092;-82
2022/08/19 12:14:46;;;;;;;0.25;0.25;;;;;;;;;;4971349;28;20562;-81
2022/08/19 12:17:15;;;;;;;0.20;0.20;;;;;;;;;;4952071;28;20075;-82
2022/08/19 12:19:44;;;;;;;0.50;0.30;;;;;;;;;;4951644;28;20051;-82
2022/08/19 12:22:13;;;;;;;0.95;0.60;;;;;;;;;;4951695;28;20047;-82
2022/08/19 12:24:42;;;;;;;0.68;0.43;;;;;;;;;;4951734;28;20504;-82
2022/08/19 12:27:10;;;;;;;0.60;0.40;;;;;;;;;;4970691;28;20162;-85
2022/08/19 12:29:41;;;;;;;0.82;0.43;;;;;;;;;;4973528;28;20042;-84
2022/08/19 12:32:10;;;;;;;0.63;0.45;;;;;;;;;;4977760;28;20188;-82
2022/08/19 12:34:40;;;;;;;0.60;0.22;;;;;;;;;;4977377;28;20049;-81
2022/08/19 12:37:09;;;;;;;1.00;0.32;;;;;;;;;;4974302;28;20059;-82
2022/08/19 12:39:41;;;;;;;0.35;0.17;;;;;;;;;;4977700;28;20093;-82
2022/08/19 12:42:10;;;;;;;0.30;0.30;;;;;;;;;;4978071;28;20128;-82
2022/08/19 12:44:39;;;;;;;1.27;0.63;;;;;;;;;;4977472;28;20522;-83
2022/08/19 12:47:10;;;;;;;0.30;0.30;;;;;;;;;;4976765;28;20047;-82
2022/08/19 12:49:39;;;;;;;1.00;0.95;;;;;;;;;;4977113;28;20468;-83
2022/08/19 12:52:23;;;;;;;0.63;0.40;;;;;;;;;;4977506;28;20826;-82
2022/08/19 12:54:53;;;;;;;0.40;0.30;;;;;;;;;;4976559;28;20101;-82
2022/08/19 12:57:23;;;;;;;0.10;0.10;;;;;;;;;;4976769;28;20677;-82
2022/08/19 12:59:59;;;;;;;0.10;0.10;;;;;;;;;;4975773;28;20046;-82
2022/08/19 13:02:28;;;;;;;0.20;0.20;;;;;;;;;;4977357;28;20046;-81
2022/08/19 13:04:57;;;;;;;0.15;0.13;;;;;;;;;;4977025;28;20078;-81
2022/08/19 13:07:26;;;;;;;0.10;0.10;;;;;;;;;;4977180;28;20058;-82
2022/08/19 13:09:56;;;;;;;0.22;0.22;;;;;;;;;;4966835;28;20496;-82
2022/08/19 13:12:26;;;;;;;0.15;0.13;;;;;;;;;;4976550;28;20212;-83
2022/08/19 13:14:54;;;;;;;0.50;0.28;;;;;;;;;;4976853;28;20066;-82
2022/08/19 13:17:24;;;;;;;0.45;0.38;;;;;;;;;;4976835;28;20055;-82
2022/08/19 13:19:52;;;;;;;0.30;0.30;;;;;;;;;;4977224;28;20057;-82
2022/08/19 13:22:21;;;;;;;0.43;0.38;;;;;;;;;;4976487;28;20117;-83
2022/08/19 13:24:50;;;;;;;0.75;0.57;;;;;;;;;;4976501;28;20085;-81
2022/08/19 13:27:20;;;;;;;0.10;0.10;;;;;;;;;;4976525;28;20059;-82
2022/08/19 13:35:21;;;;;;;0.75;0.70;;;;;;;;;;4976111;28;20100;-82
2022/08/19 13:37:50;;;;;;;0.32;0.25;;;;;;;;;;4976842;28;20141;-82
2022/08/19 13:40:21;;;;;;;0.10;0.10;;;;;;;;;;4976633;28;20067;-83
2022/08/19 13:42:52;;;;;;;0.98;0.38;;;;;;;;;;4973021;28;20043;-82
2022/08/19 13:45:22;;;;;;;0.85;0.40;;;;;;;;;;4973190;28;20100;-82
2022/08/19 13:47:51;;;;;;;0.28;0.28;;;;;;;;;;4973905;28;20090;-82
2022/08/19 13:50:28;;;;;;;0.60;0.40;;;;;;;;;;4970572;28;20062;-83
2022/08/19 13:52:57;;;;;;;0.75;0.30;;;;;;;;;;4973456;28;20072;-83
2022/08/19 13:55:26;;;;;;;0.75;0.35;;;;;;;;;;4973363;28;20407;-85
2022/08/19 13:57:58;;;;;;;0.32;0.30;;;;;;;;;;4973596;28;20125;-82
2022/08/19 14:00:27;;;;;;;0.38;0.38;;;;;;;;;;4974195;28;20047;-82
2022/08/19 14:02:57;;;;;;;0.45;0.45;;;;;;;;;;4973291;28;20058;-82
2022/08/19 14:05:26;;;;;;;0.82;0.75;;;;;;;;;;4973048;28;20050;-82
2022/08/19 14:07:55;;;;;;;0.50;0.50;;;;;;;;;;4972466;28;20129;-82
2022/08/19 14:10:24;;;;;;;0.77;0.47;;;;;;;;;;4973330;28;20049;-82
2022/08/19 14:12:55;;;;;;;0.73;0.50;;;;;;;;;;4973409;28;20051;-82
2022/08/19 14:15:26;;;;;;;0.75;0.63;;;;;;;;;;4972999;28;20134;-81
2022/08/19 14:17:55;;;;;;;0.40;0.40;;;;;;;;;;4973006;28;20427;-83
2022/08/19 14:20:24;;;;;;;1.75;0.45;;;;;;;;;;4973136;28;20046;-82
2022/08/19 14:22:54;;;;;;;1.83;1.00;;;;;;;;;;4972864;28;20085;-82
2022/08/19 14:25:23;;;;;;;1.00;0.50;;;;;;;;;;4972466;28;20090;-82
2022/08/19 14:27:52;;;;;;;1.27;0.65;;;;;;;;;;4973166;28;20164;-82
2022/08/19 14:30:23;;;;;;;1.25;0.63;;;;;;;;;;4972419;28;20129;-82
2022/08/19 14:32:53;;;;;;;1.30;0.60;;;;;;;;;;4973165;28;20146;-84
2022/08/19 14:35:23;;;;;;;0.90;0.60;;;;;;;;;;4972325;28;20065;-82
2022/08/19 14:37:55;;;;;;;0.63;0.40;;;;;;;;;;4973134;28;20410;-81
2022/08/19 14:40:25;;;;;;;1.88;0.70;;;;;;;;;;4972845;28;20391;-82
2022/08/19 14:42:59;;;;;;;1.33;0.70;;;;;;;;;;4972485;28;20055;-82
2022/08/19 14:45:28;;;;;;;1.65;0.82;;;;;;;;;;4972043;28;20314;-82
2022/08/19 14:47:59;;;;;;;0.57;0.57;;;;;;;;;;4973216;28;20109;-82
2022/08/19 14:50:27;;;;;;;0.82;0.65;;;;;;;;;;4963882;28;20047;-81
2022/08/19 14:53:00;;;;;;;1.48;0.70;;;;;;;;;;4972071;28;20054;-82
2022/08/19 14:55:34;;;;;;;1.00;0.60;;;;;;;;;;4972232;28;20055;-82
2022/08/19 14:58:02;;;;;;;0.73;0.50;;;;;;;;;;4972492;28;20090;-83
2022/08/19 15:00:35;;;;;;;0.63;0.40;;;;;;;;;;4972887;28;20131;-82
2022/08/19 15:03:05;;;;;;;0.93;0.52;;;;;;;;;;4972463;28;20511;-82
2022/08/19 15:05:35;;;;;;;1.27;0.73;;;;;;;;;;4974486;28;20093;-82
2022/08/19 15:08:04;;;;;;;1.50;0.70;;;;;;;;;;4971999;28;20047;-82
2022/08/19 15:10:33;;;;;;;2.05;0.65;;;;;;;;;;4972072;28;20051;-82
2022/08/19 15:13:01;;;;;;;2.88;1.02;;;;;;;;;;4972462;28;20428;-82
2022/08/19 15:15:30;;;;;;;1.45;0.75;;;;;;;;;;4971696;28;20066;-83
2022/08/19 15:18:02;;;;;;;1.48;0.73;;;;;;;;;;4962447;28;20058;-83
2022/08/19 15:20:32;;;;;;;1.10;0.70;;;;;;;;;;4971511;28;20210;-82
2022/08/19 15:23:01;;;;;;;1.15;0.93;;;;;;;;;;4972462;28;20410;-81
2022/08/19 15:25:29;;;;;;;4.25;1.27;;;;;;;;;;4971442;28;20103;-81